createdAt,value
2022-08-22T00:03:02.939Z,23.77
2022-08-22T00:03:27.912Z,20.42
2022-08-22T00:08:34.958Z,20.48
2022-08-22T00:13:42.247Z,20.50
2022-08-22T00:18:48.896Z,20.46
2022-08-22T00:23:56.203Z,20.43
2022-08-22T00:29:03.144Z,20.40
2022-08-22T00:34:09.992Z,20.29
2022-08-22T00:39:17.445Z,20.14
2022-08-22T00:44:24.366Z,19.96
2022-08-22T00:49:31.712Z,19.73
2022-08-22T00:54:38.656Z,19.58
2022-08-22T00:59:45.478Z,19.46
2022-08-22T01:04:53.017Z,19.34
2022-08-22T01:09:59.870Z,19.21
2022-08-22T01:15:06.712Z,19.09
2022-08-22T01:20:14.133Z,19.00
2022-08-22T01:25:22.369Z,18.86
2022-08-22T01:30:28.196Z,18.72
2022-08-22T01:35:35.006Z,18.58
2022-08-22T01:40:53.411Z,18.47
2022-08-22T01:45:49.258Z,18.41
2022-08-22T01:50:56.547Z,18.36
2022-08-22T01:56:03.361Z,18.35
2022-08-22T02:01:10.679Z,18.41
2022-08-22T02:06:17.956Z,18.56
2022-08-22T02:11:24.866Z,18.61
2022-08-22T02:16:31.713Z,18.63
2022-08-22T02:21:39.170Z,18.60
2022-08-22T02:26:45.891Z,18.54
2022-08-22T02:31:53.358Z,18.49
2022-08-22T02:37:00.219Z,18.44
2022-08-22T02:42:07.577Z,18.41
2022-08-22T02:47:14.391Z,18.42
2022-08-22T02:52:21.903Z,18.37
2022-08-22T02:57:28.708Z,18.32
2022-08-22T03:02:35.486Z,18.37
2022-08-22T03:07:42.951Z,18.53
2022-08-22T03:12:49.692Z,18.60
2022-08-22T03:17:57.107Z,18.66
2022-08-22T03:23:03.993Z,18.84
2022-08-22T03:28:11.237Z,19.02
2022-08-22T03:33:18.313Z,19.12
2022-08-22T03:38:25.314Z,19.23
2022-08-22T03:43:32.622Z,19.29
2022-08-22T03:48:39.473Z,19.22
2022-08-22T03:53:46.926Z,19.09
2022-08-22T03:58:53.725Z,18.97
2022-08-22T04:04:01.444Z,18.84
2022-08-22T04:09:07.823Z,18.82
2022-08-22T04:14:15.166Z,18.91
2022-08-22T04:19:21.971Z,18.97
2022-08-22T04:24:29.252Z,18.99
2022-08-22T04:29:36.332Z,19.02
2022-08-22T04:34:43.280Z,19.05
2022-08-22T04:39:50.731Z,19.13
2022-08-22T04:44:57.527Z,19.23
2022-08-22T04:50:04.828Z,19.35
2022-08-22T04:55:11.633Z,19.55
2022-08-22T05:00:18.962Z,19.75
2022-08-22T05:05:25.819Z,19.89
2022-08-22T05:10:33.246Z,20.04
2022-08-22T05:15:40.068Z,20.19
2022-08-22T05:20:47.579Z,20.33
2022-08-22T05:25:54.536Z,20.49
2022-08-22T05:31:01.311Z,20.66
2022-08-22T05:36:08.604Z,20.84
2022-08-22T05:41:15.569Z,21.04
2022-08-22T05:46:26.919Z,21.24
2022-08-22T05:51:29.951Z,21.48
2022-08-22T05:56:36.814Z,21.82
2022-08-22T06:01:44.347Z,22.26
2022-08-22T06:06:51.368Z,22.86
2022-08-22T06:11:58.266Z,23.53
2022-08-22T06:17:05.040Z,24.56
2022-08-22T06:22:13.814Z,25.83
2022-08-22T06:27:20.360Z,27.01
2022-08-22T06:32:52.896Z,28.05
2022-08-22T06:37:33.504Z,28.82
2022-08-22T06:42:41.724Z,29.52
2022-08-22T06:47:50.183Z,30.22
2022-08-22T06:52:54.992Z,30.76
2022-08-22T06:58:02.328Z,31.18
2022-08-22T07:03:09.206Z,31.44
2022-08-22T07:08:16.617Z,31.58
2022-08-22T07:13:23.423Z,31.66
2022-08-22T07:18:30.781Z,31.77
2022-08-22T07:23:38.399Z,31.92
2022-08-22T07:28:50.810Z,32.01
2022-08-22T07:33:52.114Z,32.04
2022-08-22T07:38:59.418Z,31.98
2022-08-22T07:44:06.430Z,31.94
2022-08-22T07:49:13.433Z,32.02
2022-08-22T07:54:20.809Z,31.91
2022-08-22T07:59:27.602Z,31.65
2022-08-22T08:04:39.487Z,31.46
2022-08-22T08:09:41.768Z,31.63
2022-08-22T08:14:49.086Z,31.95
2022-08-22T08:19:56.412Z,32.37
2022-08-22T08:25:03.296Z,32.96
2022-08-22T08:25:03.314Z,32.96
2022-08-22T08:30:15.080Z,33.46
2022-08-22T08:35:17.718Z,33.49
2022-08-22T08:40:24.739Z,33.40
2022-08-22T08:45:32.877Z,33.56
2022-08-22T08:50:39.143Z,33.79
2022-08-22T08:55:45.932Z,33.86
2022-08-22T09:00:53.313Z,33.75
2022-08-22T09:06:00.557Z,33.76
2022-08-22T09:11:09.757Z,33.90
2022-08-22T09:16:14.856Z,34.01
2022-08-22T09:21:30.657Z,33.85
2022-08-22T09:26:29.002Z,33.49
2022-08-22T09:31:51.411Z,33.47
2022-08-22T09:36:43.173Z,33.74
2022-08-22T09:41:51.632Z,33.99
2022-08-22T09:46:57.416Z,34.23
2022-08-22T09:52:15.121Z,34.41
2022-08-22T09:57:13.922Z,34.43
2022-08-22T10:02:18.871Z,34.50
2022-08-22T10:07:26.151Z,34.87
2022-08-22T10:12:36.374Z,35.36
2022-08-22T10:17:41.111Z,36.02
2022-08-22T10:22:47.329Z,36.29
2022-08-22T10:27:54.606Z,36.49
2022-08-22T10:33:02.060Z,36.76
2022-08-22T10:38:10.705Z,36.66
2022-08-22T10:43:16.514Z,36.94
2022-08-22T10:48:23.956Z,35.89
2022-08-22T10:53:32.404Z,32.95
2022-08-22T10:58:40.892Z,32.32
2022-08-22T11:08:51.809Z,32.64
2022-08-22T11:13:58.594Z,33.64
2022-08-22T11:19:14.989Z,34.32
2022-08-22T11:24:17.421Z,34.81
2022-08-22T11:29:20.170Z,35.28
2022-08-22T11:34:27.410Z,36.14
2022-08-22T11:39:34.771Z,37.39
2022-08-22T11:44:50.020Z,38.32
2022-08-22T11:49:48.828Z,38.12
2022-08-22T11:54:56.090Z,37.24
2022-08-22T12:00:03.866Z,36.29
2022-08-22T12:05:10.159Z,35.62
2022-08-22T12:10:17.768Z,35.08
2022-08-22T12:15:24.648Z,34.56
2022-08-22T12:20:31.858Z,34.40
2022-08-22T12:25:38.637Z,34.51
2022-08-22T12:30:45.882Z,34.32
2022-08-22T12:35:53.367Z,34.15
2022-08-22T12:41:00.167Z,34.59
2022-08-22T12:46:07.463Z,34.70
2022-08-22T12:51:17.297Z,34.78
2022-08-22T12:56:22.590Z,34.72
2022-08-22T13:01:33.854Z,34.45
2022-08-22T13:06:35.831Z,34.31
2022-08-22T13:11:43.059Z,34.22
2022-08-22T13:16:50.990Z,34.06
2022-08-22T13:21:57.403Z,33.98
2022-08-22T13:27:05.788Z,33.99
2022-08-22T13:32:11.458Z,33.81
2022-08-22T13:37:20.173Z,33.63
2022-08-22T13:42:30.521Z,33.32
2022-08-22T13:47:34.386Z,32.90
2022-08-22T13:52:40.023Z,32.50
2022-08-22T13:57:52.032Z,32.17
2022-08-22T14:02:54.204Z,31.94
2022-08-22T14:08:01.724Z,31.71
2022-08-22T14:13:08.773Z,31.47
2022-08-22T14:18:15.569Z,31.22
2022-08-22T14:23:23.902Z,30.99
2022-08-22T14:28:29.845Z,30.85
2022-08-22T14:33:40.001Z,30.78
2022-08-22T14:38:46.080Z,30.70
2022-08-22T14:43:51.469Z,30.54
2022-08-22T14:48:58.428Z,30.32
2022-08-22T14:54:05.869Z,30.22
2022-08-22T14:59:12.632Z,30.23
2022-08-22T15:04:20.096Z,30.23
2022-08-22T15:09:26.882Z,30.16
2022-08-22T15:14:34.217Z,30.01
2022-08-22T15:24:48.202Z,29.72
2022-08-22T15:29:55.478Z,29.57
2022-08-22T15:35:03.034Z,29.50
2022-08-22T15:35:03.098Z,29.50
2022-08-22T15:40:11.863Z,29.46
2022-08-22T15:45:16.874Z,29.36
2022-08-22T15:50:24.139Z,29.25
2022-08-22T15:55:31.019Z,29.23
2022-08-22T16:00:41.959Z,29.15
2022-08-22T16:05:45.504Z,29.07
2022-08-22T16:10:52.383Z,28.95
2022-08-22T16:15:59.694Z,28.81
2022-08-22T16:21:06.421Z,28.64
2022-08-22T16:26:13.655Z,28.43
2022-08-22T16:31:21.082Z,28.28
2022-08-22T16:36:28.002Z,28.13
2022-08-22T16:41:35.283Z,27.94
2022-08-22T16:46:42.064Z,27.66
2022-08-22T16:51:49.441Z,27.38
2022-08-22T16:56:56.742Z,27.10
2022-08-22T17:02:03.520Z,26.83
2022-08-22T17:07:10.832Z,26.61
2022-08-22T17:12:17.602Z,26.40
2022-08-22T17:17:24.804Z,26.24
2022-08-22T17:22:32.075Z,26.11
2022-08-22T17:27:39.456Z,26.00
2022-08-22T17:32:46.230Z,25.91
2022-08-22T17:37:53.482Z,25.81
2022-08-22T17:43:00.318Z,25.72
2022-08-22T17:48:07.822Z,25.63
2022-08-22T17:53:16.655Z,25.53
2022-08-22T17:58:37.557Z,25.41
2022-08-22T18:03:28.840Z,25.25
2022-08-22T18:08:37.812Z,25.10
2022-08-22T18:13:43.093Z,24.96
2022-08-22T18:18:50.454Z,24.83
2022-08-22T18:23:57.339Z,24.70
2022-08-22T18:29:04.725Z,24.57
2022-08-22T18:34:11.524Z,24.43
2022-08-22T18:39:18.965Z,24.31
2022-08-22T18:44:25.753Z,24.20
2022-08-22T18:49:33.245Z,24.11
2022-08-22T18:54:40.158Z,24.00
2022-08-22T18:59:46.952Z,23.90
2022-08-22T19:04:54.348Z,23.80
2022-08-22T19:10:01.601Z,23.72
2022-08-22T19:15:08.476Z,23.65
2022-08-22T19:20:15.864Z,23.59
2022-08-22T19:25:22.624Z,23.53
2022-08-22T19:30:30.000Z,23.44
2022-08-22T19:35:36.928Z,23.36
2022-08-22T19:40:44.255Z,23.28
2022-08-22T19:45:51.092Z,23.19
2022-08-22T19:50:58.365Z,23.10
2022-08-22T19:56:05.267Z,23.03
2022-08-22T20:01:12.566Z,22.99
2022-08-22T20:06:40.671Z,22.97
2022-08-22T20:11:26.799Z,22.95
2022-08-22T20:16:33.581Z,22.93
2022-08-22T20:21:40.986Z,22.89
2022-08-22T20:27:12.212Z,22.85
2022-08-22T20:31:58.656Z,22.83
2022-08-22T20:37:23.740Z,22.80
2022-08-22T20:42:09.245Z,22.76
2022-08-22T20:47:21.229Z,22.70
2022-08-22T20:52:23.340Z,22.66
2022-08-22T20:57:30.588Z,22.62
2022-08-22T21:02:37.927Z,22.58
2022-08-22T21:07:45.031Z,22.55
2022-08-22T21:12:51.858Z,22.54
2022-08-22T21:17:59.380Z,22.52
2022-08-22T21:23:06.143Z,22.47
2022-08-22T21:28:13.406Z,22.44
2022-08-22T21:33:23.839Z,22.39
2022-08-22T21:38:27.872Z,22.35
2022-08-22T21:43:34.687Z,22.29
2022-08-22T21:48:41.639Z,22.26
2022-08-22T21:58:56.089Z,22.20
2022-08-22T22:04:02.891Z,22.17
2022-08-22T22:09:14.573Z,22.15
2022-08-22T22:14:16.942Z,22.13
2022-08-22T22:19:24.225Z,22.10
2022-08-22T22:24:31.533Z,22.06
2022-08-22T22:29:38.337Z,22.02
2022-08-22T22:34:45.700Z,22.00
2022-08-22T22:39:52.701Z,21.97
2022-08-22T22:45:00.072Z,21.92
2022-08-22T22:50:06.954Z,21.86
2022-08-22T22:55:24.168Z,21.81
2022-08-22T23:00:21.143Z,21.80
2022-08-22T23:05:27.983Z,21.78
2022-08-22T23:10:35.394Z,21.75
2022-08-22T23:15:42.361Z,21.70
2022-08-22T23:20:49.550Z,21.65
2022-08-22T23:25:56.306Z,21.60
2022-08-22T23:31:04.604Z,21.57
2022-08-22T23:36:10.842Z,21.52
2022-08-22T23:41:17.668Z,21.46
2022-08-22T23:46:25.080Z,21.40
2022-08-22T23:51:32.016Z,21.35
2022-08-22T23:56:39.295Z,21.32
